createdAt,value
2023-05-13T03:45:11.819Z,4.43
2023-05-13T03:48:14.597Z,5.55
2023-05-13T04:14:29.612Z,4.95
2023-05-13T04:17:34.936Z,5.22
2023-05-13T04:20:39.153Z,5.47
2023-05-13T04:23:42.009Z,5.20
2023-05-13T04:26:46.013Z,5.57
2023-05-13T04:29:50.471Z,5.65
2023-05-13T04:32:54.646Z,5.35
2023-05-13T04:35:57.540Z,6.03
2023-05-13T04:39:00.438Z,4.75
2023-05-13T04:42:03.090Z,5.10
2023-05-13T04:45:08.530Z,5.00
2023-05-13T04:48:16.292Z,4.68
2023-05-13T04:51:19.127Z,5.35
2023-05-13T04:54:22.462Z,5.43
2023-05-13T04:57:25.122Z,4.82
2023-05-13T05:00:29.401Z,4.60
2023-05-13T05:03:31.937Z,4.68
2023-05-13T05:06:34.453Z,4.97
2023-05-13T05:09:37.045Z,4.65
2023-05-13T05:12:39.583Z,4.68
2023-05-13T05:15:43.479Z,4.10
2023-05-13T05:18:46.153Z,4.15
2023-05-13T05:21:48.776Z,4.75
2023-05-13T05:24:51.236Z,4.28
2023-05-13T05:27:53.721Z,4.45
2023-05-13T05:30:57.792Z,4.28
2023-05-13T05:34:01.033Z,4.40
2023-05-13T05:37:03.556Z,4.05
2023-05-13T05:40:07.508Z,4.20
2023-05-13T05:43:11.010Z,4.22
2023-05-13T05:46:14.889Z,4.45
2023-05-13T05:49:17.443Z,4.45
2023-05-13T05:52:20.024Z,4.40
2023-05-13T05:55:22.757Z,4.35
2023-05-13T05:58:27.029Z,4.32
2023-05-13T06:01:33.833Z,4.35
2023-05-13T06:04:36.420Z,4.90
2023-05-13T06:07:38.993Z,4.03
2023-05-13T06:10:41.798Z,3.83
2023-05-13T06:13:45.006Z,4.50
2023-05-13T06:16:48.845Z,4.43
2023-05-13T06:19:51.343Z,4.25
2023-05-13T06:22:53.839Z,3.88
2023-05-13T06:25:57.441Z,3.97
2023-05-13T06:29:00.011Z,3.40
2023-05-13T06:32:04.484Z,3.83
2023-05-13T06:35:07.581Z,3.92
2023-05-13T06:38:10.130Z,3.38
2023-05-13T06:41:12.645Z,4.38
2023-05-13T06:44:15.218Z,3.75
2023-05-13T06:47:19.879Z,4.18
2023-05-13T06:50:23.790Z,3.70
2023-05-13T06:53:26.709Z,3.50
2023-05-13T06:56:30.501Z,3.40
2023-05-13T06:59:33.008Z,3.65
2023-05-13T07:02:36.926Z,3.35
2023-05-13T07:05:40.083Z,3.40
2023-05-13T07:08:42.652Z,3.22
2023-05-13T07:11:45.237Z,3.05
2023-05-13T07:14:47.801Z,3.22
2023-05-13T07:17:51.785Z,3.78
2023-05-13T07:20:54.555Z,3.50
2023-05-13T07:23:57.023Z,3.47
2023-05-13T07:26:59.636Z,3.67
2023-05-13T07:30:02.210Z,3.67
2023-05-13T07:33:06.198Z,3.25
2023-05-13T07:36:08.820Z,3.55
2023-05-13T07:39:11.498Z,3.67
2023-05-13T07:42:15.317Z,3.60
2023-05-13T07:45:17.877Z,3.10
2023-05-13T07:48:21.770Z,2.58
2023-05-13T07:51:24.250Z,2.92
2023-05-13T07:54:26.814Z,3.65
2023-05-13T07:57:29.312Z,2.85
2023-05-13T08:00:31.829Z,2.58
2023-05-13T08:03:36.133Z,3.13
2023-05-13T08:06:40.122Z,3.00
2023-05-13T08:09:42.933Z,2.72
2023-05-13T08:12:50.873Z,3.03
2023-05-13T08:15:53.890Z,2.63
2023-05-13T08:18:58.132Z,2.97
2023-05-13T08:22:00.779Z,2.88
2023-05-13T08:25:03.494Z,2.53
2023-05-13T08:28:06.240Z,2.80
2023-05-13T08:31:08.781Z,2.95
2023-05-13T08:34:12.598Z,2.58
2023-05-13T08:37:15.080Z,2.95
2023-05-13T08:40:18.566Z,2.78
2023-05-13T08:43:28.094Z,2.30
2023-05-13T08:46:33.897Z,2.38
2023-05-13T08:49:38.334Z,2.83
2023-05-13T08:52:41.107Z,2.80
2023-05-13T08:55:43.802Z,2.40
2023-05-13T08:58:46.754Z,2.60
2023-05-13T09:01:51.008Z,2.55
2023-05-13T09:04:56.332Z,2.70
2023-05-13T09:07:58.999Z,2.47
2023-05-13T09:11:01.636Z,2.08
2023-05-13T09:14:07.183Z,2.38
2023-05-13T09:17:09.747Z,2.78
2023-05-13T09:20:15.589Z,2.05
2023-05-13T09:23:18.298Z,2.45
2023-05-13T09:26:30.639Z,2.72
2023-05-13T09:29:33.352Z,2.50
2023-05-13T09:32:35.890Z,2.13
2023-05-13T09:35:41.396Z,2.35
2023-05-13T09:38:44.003Z,2.47
2023-05-13T09:41:48.154Z,2.45
2023-05-13T09:44:50.796Z,2.38
2023-05-13T09:47:54.126Z,2.70
2023-05-13T09:50:58.468Z,2.47
2023-05-13T09:54:06.215Z,2.35
2023-05-13T09:57:08.776Z,2.38
2023-05-13T10:00:24.718Z,2.70
2023-05-13T10:03:38.338Z,2.75
2023-05-13T10:07:16.766Z,2.35
2023-05-13T10:10:30.206Z,2.15
2023-05-13T10:14:01.941Z,2.33
2023-05-13T10:17:13.178Z,2.22
2023-05-13T10:20:31.317Z,2.42
2023-05-13T10:23:37.132Z,2.70
2023-05-13T10:26:48.772Z,2.92
2023-05-13T10:30:10.198Z,2.22
2023-05-13T10:33:51.955Z,2.13
2023-05-13T10:37:22.746Z,2.10
2023-05-13T10:41:21.136Z,2.80
2023-05-13T10:44:47.721Z,2.13
2023-05-13T10:48:34.990Z,2.10
2023-05-13T10:55:29.365Z,2.08
2023-05-13T11:02:28.658Z,2.47
2023-05-13T11:05:50.068Z,1.90
2023-05-13T11:12:05.152Z,3.10
2023-05-13T11:15:22.569Z,2.58
2023-05-13T11:18:43.031Z,2.25
2023-05-13T11:21:52.658Z,2.63
2023-05-13T11:25:08.208Z,2.13
2023-05-13T11:28:10.687Z,2.33
2023-05-13T11:31:19.008Z,2.10
2023-05-13T11:34:23.229Z,2.45
2023-05-13T11:37:25.788Z,2.22
2023-05-13T11:40:30.230Z,2.50
2023-05-13T11:43:34.695Z,2.50
2023-05-13T11:46:37.549Z,1.92
2023-05-13T11:49:42.951Z,2.55
2023-05-13T11:52:45.598Z,2.20
2023-05-13T11:55:48.079Z,2.47
2023-05-13T11:58:50.622Z,2.17
2023-05-13T12:02:00.175Z,2.38
2023-05-13T12:05:05.752Z,2.47
2023-05-13T12:08:10.660Z,2.25
2023-05-13T12:11:13.775Z,2.75
2023-05-13T12:14:16.465Z,1.90
2023-05-13T12:17:19.581Z,2.70
2023-05-13T12:20:24.899Z,2.92
2023-05-13T12:23:27.668Z,2.40
2023-05-13T12:26:31.581Z,2.47
2023-05-13T12:29:43.440Z,2.03
2023-05-13T12:32:47.355Z,1.98
2023-05-13T12:35:53.357Z,2.40
2023-05-13T12:39:00.142Z,2.00
2023-05-13T12:42:03.318Z,2.70
2023-05-13T12:45:07.190Z,2.22
2023-05-13T12:48:10.101Z,2.08
2023-05-13T12:51:15.829Z,2.08
2023-05-13T12:54:18.405Z,1.95
2023-05-13T12:57:21.421Z,2.13
2023-05-13T13:00:24.932Z,2.95
2023-05-13T13:03:27.713Z,2.05
2023-05-13T13:06:32.419Z,2.17
2023-05-13T13:09:35.045Z,2.10
2023-05-13T13:12:37.555Z,2.38
2023-05-13T13:15:40.391Z,2.53
2023-05-13T13:18:43.708Z,2.25
2023-05-13T13:21:47.597Z,2.50
2023-05-13T13:24:50.066Z,2.17
2023-05-13T13:27:52.669Z,2.55
2023-05-13T13:30:55.539Z,2.38
2023-05-13T13:34:04.032Z,2.00
2023-05-13T13:37:07.868Z,2.20
2023-05-13T13:40:11.762Z,1.65
2023-05-13T13:43:14.275Z,2.47
2023-05-13T13:46:16.877Z,2.40
2023-05-13T13:49:23.972Z,2.67
2023-05-13T13:52:28.662Z,2.08
2023-05-13T13:55:31.324Z,2.00
2023-05-13T13:58:33.955Z,2.10
2023-05-13T14:01:36.509Z,1.98
2023-05-13T14:04:39.748Z,2.08
2023-05-13T14:07:43.592Z,2.40
2023-05-13T14:10:46.143Z,2.28
2023-05-13T14:13:48.668Z,2.00
2023-05-13T14:16:51.946Z,2.03
2023-05-13T14:19:55.560Z,2.25
2023-05-13T14:22:59.558Z,2.10
2023-05-13T14:26:02.168Z,2.80
2023-05-13T14:29:04.719Z,2.00
2023-05-13T14:32:07.965Z,1.85
2023-05-13T14:35:10.900Z,2.30
2023-05-13T14:38:14.734Z,2.30
2023-05-13T14:41:19.986Z,2.38
2023-05-13T14:44:22.552Z,1.95
2023-05-13T14:47:25.151Z,2.00
2023-05-13T14:50:27.709Z,2.10
2023-05-13T14:53:31.624Z,2.00
2023-05-13T14:56:34.267Z,2.35
2023-05-13T14:59:36.983Z,2.15
2023-05-13T15:02:39.665Z,2.22
2023-05-13T15:05:44.138Z,2.45
2023-05-13T15:08:48.200Z,2.35
2023-05-13T15:11:50.780Z,2.28
2023-05-13T15:14:53.887Z,2.10
2023-05-13T15:17:56.477Z,2.47
2023-05-13T15:20:59.127Z,2.10
2023-05-13T15:24:02.972Z,2.45
2023-05-13T15:27:05.931Z,2.50
2023-05-13T15:30:09.450Z,2.33
2023-05-13T15:33:12.043Z,2.53
2023-05-13T15:36:14.626Z,2.25
2023-05-13T15:39:18.446Z,2.88
2023-05-13T15:42:21.361Z,2.50
2023-05-13T15:45:23.873Z,2.63
2023-05-13T15:48:26.505Z,2.60
2023-05-13T15:51:29.258Z,2.40
2023-05-13T15:54:33.151Z,2.75
2023-05-13T15:57:35.673Z,2.10
2023-05-13T16:00:38.165Z,2.22
2023-05-13T16:03:40.697Z,2.42
2023-05-13T16:06:43.223Z,2.75
2023-05-13T16:09:47.122Z,2.13
2023-05-13T16:12:49.648Z,2.08
2023-05-13T16:15:53.804Z,2.35
2023-05-13T16:18:56.445Z,2.42
2023-05-13T16:21:59.007Z,1.92
2023-05-13T16:25:05.655Z,2.50
2023-05-13T16:28:08.521Z,2.63
2023-05-13T16:31:11.161Z,2.10
2023-05-13T16:34:13.997Z,2.30
2023-05-13T16:37:16.608Z,2.75
2023-05-13T16:40:20.685Z,2.05
2023-05-13T16:43:23.293Z,2.50
2023-05-13T16:46:25.873Z,2.22
2023-05-13T16:49:28.465Z,2.35
2023-05-13T16:52:32.132Z,2.60
2023-05-13T16:55:36.300Z,2.60
2023-05-13T16:58:38.885Z,2.53
2023-05-13T17:01:41.496Z,2.78
2023-05-13T17:04:44.075Z,2.30
2023-05-13T17:07:46.579Z,2.60
2023-05-13T17:10:50.524Z,2.25
2023-05-13T17:13:53.264Z,2.15
2023-05-13T17:16:56.154Z,2.33
2023-05-13T17:19:58.842Z,2.10
2023-05-13T17:23:01.309Z,2.20
2023-05-13T17:26:05.261Z,2.50
2023-05-13T17:29:07.881Z,2.60
2023-05-13T17:32:10.536Z,2.38
2023-05-13T17:35:13.032Z,2.20
2023-05-13T17:38:16.940Z,2.50
2023-05-13T17:41:21.738Z,2.28
2023-05-13T17:44:24.509Z,2.50
2023-05-13T17:47:27.036Z,3.67
2023-05-13T17:50:30.504Z,4.70
2023-05-13T17:53:34.787Z,2.83
2023-05-13T17:56:39.030Z,2.63
2023-05-13T17:59:42.085Z,1.92
2023-05-13T18:02:44.697Z,2.20
2023-05-13T18:05:47.296Z,1.98
2023-05-13T18:08:49.896Z,2.50
2023-05-13T18:11:53.718Z,2.38
2023-05-13T18:14:56.257Z,2.65
2023-05-13T18:17:58.814Z,2.13
2023-05-13T18:21:01.438Z,2.45
2023-05-13T18:24:03.980Z,2.75
2023-05-13T18:27:08.692Z,2.78
2023-05-13T18:30:12.700Z,2.60
2023-05-13T18:33:15.210Z,2.78
2023-05-13T18:36:17.924Z,2.70
2023-05-13T18:39:21.720Z,2.75
2023-05-13T18:42:26.310Z,2.80
2023-05-13T18:45:28.987Z,3.70
2023-05-13T18:48:31.563Z,2.60
2023-05-13T18:51:34.791Z,2.42
2023-05-13T18:54:38.424Z,2.45
2023-05-13T18:57:42.335Z,2.28
2023-05-13T19:00:44.843Z,2.90
2023-05-13T19:03:47.564Z,2.60
2023-05-13T19:06:50.393Z,2.60
2023-05-13T19:09:52.912Z,3.05
2023-05-13T19:12:56.731Z,2.70
2023-05-13T19:16:00.521Z,3.05
2023-05-13T19:19:11.626Z,2.95
2023-05-13T19:22:14.944Z,2.85
2023-05-13T19:25:17.588Z,3.20
2023-05-13T19:28:21.564Z,2.50
2023-05-13T19:31:24.670Z,3.40
2023-05-13T19:34:27.429Z,3.00
2023-05-13T19:37:32.603Z,3.17
2023-05-13T19:40:35.205Z,3.08
2023-05-13T19:43:39.315Z,3.35
2023-05-13T20:01:54.076Z,3.70
2023-05-13T20:05:06.256Z,3.90
2023-05-13T20:08:12.641Z,4.00
2023-05-13T20:11:21.753Z,4.88
2023-05-13T20:14:30.617Z,4.05
2023-05-13T20:17:34.993Z,4.30
